Time;durP1;ratioP1;P1;durP2;ratioP2;P2;SDS_P1;SDS_P2;PMS_P1;PMS_P2;Temp;Humidity;BMP_temperature;BMP_pressure;BME280_temperature;BME280_humidity;BME280_pressure;Samples;Min_cycle;Max_cycle;Signal;HPM_P1;HPM_P2
2024/02/23 00:00:05;;;;;;;41.25;20.60;;;;;;;5.88;77.83;100227.70;124027;1099;104315;-84
2024/02/23 00:02:37;;;;;;;39.87;20.83;;;;;;;5.90;79.45;100230.39;124264;1099;104172;-84
2024/02/23 00:05:09;;;;;;;38.00;20.13;;;;;;;5.89;78.53;100218.17;124330;1098;104347;-86
2024/02/23 00:07:40;;;;;;;38.90;20.10;;;;;;;5.89;78.27;100220.77;124223;1098;104265;-82
2024/02/23 00:10:12;;;;;;;37.73;20.07;;;;;;;5.89;78.58;100213.87;124159;1099;104331;-84
2024/02/23 00:12:44;;;;;;;36.77;20.10;;;;;;;5.90;78.37;100217.36;124244;1099;104262;-82
2024/02/23 00:15:15;;;;;;;41.37;21.70;;;;;;;5.90;78.51;100209.55;124084;1099;104345;-82
2024/02/23 00:17:46;;;;;;;40.10;20.70;;;;;;;5.91;78.58;100201.81;124454;1099;104304;-84
2024/02/23 00:20:17;;;;;;;34.90;17.93;;;;;;;5.90;80.11;100194.81;124026;1099;104229;-83
2024/02/23 00:22:48;;;;;;;38.60;20.33;;;;;;;5.90;79.49;100191.32;124237;1099;104245;-83
2024/02/23 00:25:20;;;;;;;39.70;20.10;;;;;;;5.90;80.58;100194.81;124057;1099;104342;-81
2024/02/23 00:27:51;;;;;;;38.07;20.63;;;;;;;5.89;80.06;100194.73;124275;1099;104489;-80
2024/02/23 00:30:22;;;;;;;39.67;20.97;;;;;;;5.87;79.43;100193.77;124105;1099;104290;-84
2024/02/23 00:32:53;;;;;;;43.83;21.87;;;;;;;5.87;79.05;100180.75;124232;1099;104193;-80
2024/02/23 00:35:25;;;;;;;41.15;21.95;;;;;;;5.87;79.13;100180.75;124132;1099;104268;-83
2024/02/23 00:37:56;;;;;;;43.27;22.20;;;;;;;5.85;79.76;100178.08;124059;1098;104407;-83
2024/02/23 00:40:27;;;;;;;43.33;22.60;;;;;;;5.85;79.78;100183.28;123983;1099;104373;-82
2024/02/23 00:43:00;;;;;;;39.43;20.43;;;;;;;5.83;79.60;100179.72;124095;1099;104242;-83
2024/02/23 00:45:31;;;;;;;42.97;21.93;;;;;;;5.81;79.37;100176.13;124095;1099;104268;-82
2024/02/23 00:48:02;;;;;;;36.47;19.07;;;;;;;5.82;79.52;100171.83;124176;1099;104217;-83
2024/02/23 00:50:33;;;;;;;41.37;21.63;;;;;;;5.81;80.74;100159.62;124141;1098;104192;-83
2024/02/23 00:53:04;;;;;;;41.30;21.10;;;;;;;5.80;80.14;100163.03;124214;1099;104355;-84
2024/02/23 00:55:36;;;;;;;40.50;21.63;;;;;;;5.79;79.94;100153.45;123873;1099;104368;-82
2024/02/23 00:58:07;;;;;;;40.00;21.25;;;;;;;5.80;80.17;100150.01;124023;1099;104347;-81
2024/02/23 01:00:38;;;;;;;42.93;22.17;;;;;;;5.80;80.08;100152.61;124184;1099;104196;-83
2024/02/23 01:03:09;;;;;;;37.83;20.90;;;;;;;5.80;80.39;100147.41;124201;1099;104345;-82
2024/02/23 01:05:42;;;;;;;42.47;22.67;;;;;;;5.80;80.43;100144.80;124190;1099;104351;-81
2024/02/23 01:08:14;;;;;;;38.93;20.43;;;;;;;5.81;80.83;100151.81;124206;1099;104348;-82
2024/02/23 01:10:46;;;;;;;39.95;20.40;;;;;;;5.81;80.75;100142.27;123869;1100;104306;-84
2024/02/23 01:13:17;;;;;;;41.87;22.10;;;;;;;5.82;81.11;100146.67;124324;1099;104428;-83
2024/02/23 01:15:48;;;;;;;45.73;23.60;;;;;;;5.82;81.06;100144.07;124188;1099;104226;-80
2024/02/23 01:18:22;;;;;;;42.33;22.70;;;;;;;5.82;80.85;100149.28;123995;1099;104232;-81
2024/02/23 01:20:53;;;;;;;42.80;22.00;;;;;;;5.83;80.55;100151.08;124191;1099;104241;-81
2024/02/23 01:23:24;;;;;;;40.07;21.13;;;;;;;5.86;80.54;100150.31;123862;1099;104281;-81
2024/02/23 01:25:56;;;;;;;41.10;21.07;;;;;;;5.89;80.87;100151.38;123974;1099;105441;-82
2024/02/23 01:28:27;;;;;;;41.83;22.17;;;;;;;5.91;80.67;100148.84;124156;1099;104686;-81
2024/02/23 01:30:58;;;;;;;40.07;20.73;;;;;;;5.92;81.40;100148.01;123841;1099;104407;-81
2024/02/23 01:33:29;;;;;;;41.70;22.17;;;;;;;5.95;80.61;100150.77;124010;1099;104220;-80
2024/02/23 01:36:00;;;;;;;40.75;21.20;;;;;;;5.96;81.75;100151.68;124143;1099;104290;-84
2024/02/23 01:38:32;;;;;;;40.23;21.10;;;;;;;5.97;81.31;100150.87;124049;1099;104354;-81
2024/02/23 01:41:05;;;;;;;43.50;21.90;;;;;;;5.98;81.40;100150.95;124034;1099;104278;-81
2024/02/23 01:43:36;;;;;;;40.43;21.40;;;;;;;6.00;81.16;100154.54;124075;1099;104387;-81
2024/02/23 01:46:08;;;;;;;44.10;23.13;;;;;;;6.01;81.14;100153.70;123675;1099;104405;-81
2024/02/23 01:48:39;;;;;;;42.27;21.63;;;;;;;6.02;81.10;100147.68;123760;1099;104380;-81
2024/02/23 01:51:12;;;;;;;43.63;23.67;;;;;;;6.02;81.18;100142.47;124011;1099;104252;-81
2024/02/23 01:53:43;;;;;;;42.87;22.73;;;;;;;6.03;81.13;100146.88;124102;1099;104789;-82
2024/02/23 01:56:19;;;;;;;39.70;22.13;;;;;;;6.06;81.09;100146.11;123916;1099;104242;-81
2024/02/23 01:58:50;;;;;;;44.10;22.60;;;;;;;6.07;81.15;100143.58;124298;1099;104242;-81
2024/02/23 02:01:22;;;;;;;41.27;21.47;;;;;;;6.07;81.17;100132.27;124049;1099;104345;-82
2024/02/23 02:03:53;;;;;;;42.30;22.53;;;;;;;6.07;81.59;100127.95;123919;1099;104334;-82
2024/02/23 02:06:25;;;;;;;43.70;22.37;;;;;;;6.09;81.56;100123.72;123800;1099;104364;-81
2024/02/23 02:08:57;;;;;;;41.87;22.57;;;;;;;6.09;81.13;100126.33;123746;1099;107014;-81
2024/02/23 02:11:28;;;;;;;42.83;22.00;;;;;;;6.13;81.52;100122.15;124043;1099;104344;-81
2024/02/23 02:13:59;;;;;;;35.13;18.87;;;;;;;6.11;82.61;100116.86;124141;1099;104390;-80
2024/02/23 02:16:30;;;;;;;41.03;22.27;;;;;;;6.09;81.50;100123.72;123970;1099;104274;-82
2024/02/23 02:19:02;;;;;;;40.73;21.67;;;;;;;6.10;81.98;100117.67;124230;1098;118682;-82
2024/02/23 02:21:34;;;;;;;41.35;21.35;;;;;;;6.13;81.67;100121.27;124085;1099;104342;-80
2024/02/23 02:24:06;;;;;;;44.27;22.57;;;;;;;6.13;81.58;100126.48;124069;1099;104390;-82
2024/02/23 02:26:38;;;;;;;39.67;22.00;;;;;;;6.13;81.47;100131.69;123759;1098;104313;-81
2024/02/23 02:29:09;;;;;;;40.47;21.37;;;;;;;6.13;81.84;100129.08;124103;1099;104360;-81
2024/02/23 02:31:40;;;;;;;43.80;22.57;;;;;;;6.14;81.83;100136.97;123990;1099;104284;-81
2024/02/23 02:34:14;;;;;;;41.27;22.57;;;;;;;6.15;81.69;100133.52;124008;1099;104347;-80
2024/02/23 02:36:45;;;;;;;41.60;22.00;;;;;;;6.17;82.20;100129.30;124175;1099;104464;-81
2024/02/23 02:39:17;;;;;;;42.03;22.90;;;;;;;6.18;81.70;100132.78;123997;1099;104258;-82
2024/02/23 02:41:48;;;;;;;45.47;23.53;;;;;;;6.19;81.94;100135.47;124095;1099;104870;-81
2024/02/23 02:44:20;;;;;;;41.00;22.63;;;;;;;6.21;82.01;100132.93;123927;1099;104393;-81
2024/02/23 02:46:51;;;;;;;41.53;21.83;;;;;;;6.22;81.95;100142.55;124111;1099;104271;-84
2024/02/23 02:49:22;;;;;;;40.97;21.23;;;;;;;6.22;81.84;100133.00;123960;1099;104306;-81
2024/02/23 02:51:53;;;;;;;43.83;22.27;;;;;;;6.24;81.66;100133.96;123790;1099;104178;-81
2024/02/23 02:54:24;;;;;;;43.43;22.00;;;;;;;6.25;81.81;100135.75;124050;1098;104306;-82
2024/02/23 02:56:55;;;;;;;40.37;21.80;;;;;;;6.28;81.84;100137.62;123974;1099;104400;-80
2024/02/23 02:59:27;;;;;;;42.25;22.00;;;;;;;6.28;82.02;100130.69;123976;1099;104731;-81
2024/02/23 03:01:58;;;;;;;39.15;20.95;;;;;;;6.29;82.16;100128.97;123809;1099;104331;-80
2024/02/23 03:04:29;;;;;;;40.07;21.33;;;;;;;6.30;82.17;100133.37;124163;1098;104354;-84
2024/02/23 03:07:00;;;;;;;42.77;22.50;;;;;;;6.31;82.09;100129.95;124049;1099;104738;-81
2024/02/23 03:09:32;;;;;;;43.00;22.00;;;;;;;6.32;82.71;100136.92;124016;1099;104393;-81
2024/02/23 03:12:03;;;;;;;38.33;20.83;;;;;;;6.35;82.20;100138.80;124094;1099;104479;-83
2024/02/23 03:14:34;;;;;;;40.45;20.40;;;;;;;6.35;82.17;100130.98;123710;1099;104676;-83
2024/02/23 03:17:06;;;;;;;39.80;20.97;;;;;;;6.34;82.37;100132.67;124083;1099;104241;-80
2024/02/23 03:19:37;;;;;;;38.13;20.77;;;;;;;6.34;82.36;100131.78;123957;1099;104258;-80
2024/02/23 03:22:09;;;;;;;41.03;21.70;;;;;;;6.35;82.20;100137.07;124046;1099;104425;-81
2024/02/23 03:24:41;;;;;;;38.03;20.87;;;;;;;6.35;82.22;100128.37;123954;1099;104267;-81
2024/02/23 03:27:12;;;;;;;41.90;21.37;;;;;;;6.35;82.67;100129.25;124136;1099;104229;-84
2024/02/23 03:29:43;;;;;;;39.93;20.63;;;;;;;6.34;82.34;100143.09;124043;1099;104255;-81
2024/02/23 03:32:14;;;;;;;38.00;20.10;;;;;;;6.35;82.35;100138.80;123726;1099;104331;-83
2024/02/23 03:34:45;;;;;;;41.83;20.97;;;;;;;6.34;82.25;100135.27;123979;1099;104350;-81
2024/02/23 03:37:16;;;;;;;39.17;20.27;;;;;;;6.34;82.45;100130.06;124098;1099;104281;-81
2024/02/23 03:39:48;;;;;;;37.37;20.37;;;;;;;6.35;82.43;100131.86;123882;1099;104396;-82
2024/02/23 03:42:19;;;;;;;39.20;20.40;;;;;;;6.34;82.43;100127.45;124044;1099;104262;-85
2024/02/23 03:44:51;;;;;;;41.53;21.27;;;;;;;6.36;82.71;100131.05;124137;1099;104264;-81
2024/02/23 03:47:22;;;;;;;39.27;21.03;;;;;;;6.36;82.51;100135.34;124044;1099;104248;-82
2024/02/23 03:49:53;;;;;;;41.50;20.90;;;;;;;6.37;82.49;100132.81;124000;1099;104268;-82
2024/02/23 03:52:24;;;;;;;42.27;21.57;;;;;;;6.39;82.67;100136.41;124169;1099;104265;-82
2024/02/23 03:54:56;;;;;;;41.13;21.97;;;;;;;6.39;82.70;100133.80;123668;1099;104408;-81
2024/02/23 03:57:27;;;;;;;41.13;21.90;;;;;;;6.39;82.66;100131.19;124050;1099;104246;-81
2024/02/23 03:59:58;;;;;;;39.10;21.30;;;;;;;6.40;82.74;100135.56;123993;1099;104287;-80
2024/02/23 04:02:30;;;;;;;40.23;21.10;;;;;;;6.41;82.58;100132.14;124183;1099;104379;-82
2024/02/23 04:05:01;;;;;;;38.77;21.87;;;;;;;6.40;82.63;100135.56;123833;1099;104271;-81
2024/02/23 04:07:33;;;;;;;38.20;21.30;;;;;;;6.40;82.85;100135.56;124095;1098;104241;-80
2024/02/23 04:10:04;;;;;;;53.85;22.00;;;;;;;6.40;83.02;100129.47;124083;1099;104243;-80
2024/02/23 04:12:36;;;;;;;39.20;19.80;;;;;;;6.42;82.60;100140.84;124182;1099;104347;-81
2024/02/23 04:15:08;;;;;;;41.40;20.50;;;;;;;6.43;82.73;100140.03;124148;1099;104194;-82
2024/02/23 04:17:39;;;;;;;37.10;19.77;;;;;;;6.43;82.88;100133.09;123921;1098;104306;-80
2024/02/23 04:20:13;;;;;;;36.50;20.27;;;;;;;6.44;82.59;100132.28;124083;1099;104267;-81
2024/02/23 04:22:46;;;;;;;40.97;21.07;;;;;;;6.45;82.75;100130.56;124192;1099;104275;-82
2024/02/23 04:25:17;;;;;;;39.20;20.50;;;;;;;6.45;82.81;100136.69;124030;1098;104230;-82
2024/02/23 04:27:50;;;;;;;38.60;19.80;;;;;;;6.44;82.72;100132.28;124136;1099;104556;-82
2024/02/23 04:30:25;;;;;;;39.17;20.00;;;;;;;6.44;83.06;100132.28;124020;1099;104274;-82
2024/02/23 04:32:56;;;;;;;37.05;20.50;;;;;;;6.44;82.72;100137.50;124095;1099;104332;-82
2024/02/23 04:35:27;;;;;;;43.50;22.13;;;;;;;6.44;83.51;100134.02;123997;1099;104414;-83
2024/02/23 04:37:59;;;;;;;38.10;21.00;;;;;;;6.44;82.80;100136.63;124035;1099;104256;-81
2024/02/23 04:40:30;;;;;;;40.30;20.83;;;;;;;6.43;82.98;100135.70;124030;1099;104286;-85
2024/02/23 04:43:01;;;;;;;42.27;20.20;;;;;;;6.46;82.89;100140.17;124135;1099;104274;-82
2024/02/23 04:45:32;;;;;;;37.00;19.63;;;;;;;6.46;83.04;100138.45;124361;1099;104265;-82
2024/02/23 04:48:04;;;;;;;37.43;20.13;;;;;;;6.45;82.90;100131.48;124078;1099;104319;-83
2024/02/23 04:50:35;;;;;;;39.97;20.90;;;;;;;6.47;83.02;100124.61;124244;1099;104397;-83
2024/02/23 04:53:07;;;;;;;37.97;20.00;;;;;;;6.47;83.39;100115.91;124058;1099;104300;-82
2024/02/23 04:55:39;;;;;;;39.37;20.03;;;;;;;6.48;83.19;100126.41;124032;1099;104245;-83
2024/02/23 04:58:11;;;;;;;42.13;22.00;;;;;;;6.47;83.09;100122.00;124039;1099;104245;-82
2024/02/23 05:00:43;;;;;;;44.83;21.63;;;;;;;6.47;83.55;100128.94;124543;1099;104268;-82
2024/02/23 05:03:15;;;;;;;38.40;20.20;;;;;;;6.47;83.83;100142.86;124067;1099;104673;-83
2024/02/23 05:05:47;;;;;;;39.80;20.77;;;;;;;6.48;83.31;100144.66;124317;1099;104325;-82
2024/02/23 05:08:18;;;;;;;43.93;22.17;;;;;;;6.49;83.41;100140.32;124155;1099;104291;-82
2024/02/23 05:10:49;;;;;;;41.07;21.63;;;;;;;6.50;83.24;100149.02;124094;1099;104222;-82
2024/02/23 05:13:20;;;;;;;43.93;23.23;;;;;;;6.50;83.11;100152.55;124639;1099;104280;-82
2024/02/23 05:15:51;;;;;;;46.17;23.93;;;;;;;6.49;83.17;100158.56;124509;1099;104340;-82
2024/02/23 05:18:23;;;;;;;44.90;22.10;;;;;;;6.52;83.33;100160.44;124347;1098;104223;-82
2024/02/23 05:20:54;;;;;;;39.63;20.93;;;;;;;6.52;83.60;100157.83;124091;1099;104376;-82
2024/02/23 05:23:25;;;;;;;42.47;22.83;;;;;;;6.53;83.28;100157.90;124297;1099;104242;-87
2024/02/23 05:25:56;;;;;;;40.67;21.43;;;;;;;6.56;83.43;100164.95;124358;1099;104242;-82
2024/02/23 05:28:28;;;;;;;41.45;22.40;;;;;;;6.56;83.80;100159.73;124249;1099;104245;-83
2024/02/23 05:30:59;;;;;;;44.83;22.87;;;;;;;6.58;83.95;100165.94;124018;1099;104321;-84
2024/02/23 05:33:30;;;;;;;39.80;22.70;;;;;;;6.60;83.57;100164.28;124269;1098;104297;-81
2024/02/23 05:36:02;;;;;;;43.87;22.80;;;;;;;6.63;83.70;100169.63;124267;1099;104217;-82
2024/02/23 05:38:33;;;;;;;43.87;22.40;;;;;;;6.65;83.71;100174.11;124427;1099;104376;-84
2024/02/23 05:41:05;;;;;;;41.10;21.67;;;;;;;6.67;83.64;100179.40;124418;1099;104327;-83
2024/02/23 05:43:36;;;;;;;41.57;22.67;;;;;;;6.69;83.86;100179.47;124401;1099;104373;-83
2024/02/23 05:46:07;;;;;;;40.37;21.57;;;;;;;6.70;83.82;100171.72;124543;1099;104208;-84
2024/02/23 05:48:39;;;;;;;40.83;21.47;;;;;;;6.73;83.79;100177.08;124636;1099;104349;-80
2024/02/23 05:51:10;;;;;;;44.57;22.87;;;;;;;6.74;84.08;100160.58;124653;1099;104153;-80
2024/02/23 05:53:43;;;;;;;43.40;22.70;;;;;;;6.76;84.33;100161.56;124094;1099;104229;-81
2024/02/23 05:56:15;;;;;;;42.07;23.13;;;;;;;6.78;84.11;100169.46;124769;1099;104243;-84
2024/02/23 05:58:46;;;;;;;42.40;23.83;;;;;;;6.79;84.12;100173.83;124523;1099;104565;-83
2024/02/23 06:01:17;;;;;;;43.13;23.77;;;;;;;6.80;84.26;100180.84;124523;1099;104245;-83
2024/02/23 06:03:49;;;;;;;42.85;23.30;;;;;;;6.80;84.26;100184.33;124507;1098;104175;-83
2024/02/23 06:06:28;;;;;;;43.60;22.87;;;;;;;6.81;84.71;100180.03;124661;1099;104376;-84
2024/02/23 06:08:59;;;;;;;41.30;22.20;;;;;;;6.82;84.39;100185.31;124421;1099;104310;-83
2024/02/23 06:11:31;;;;;;;44.53;22.83;;;;;;;6.85;84.49;100194.98;124525;1099;104248;-83
2024/02/23 06:14:02;;;;;;;42.47;22.77;;;;;;;6.90;84.62;100190.85;124783;1099;104191;-80
2024/02/23 06:16:33;;;;;;;44.70;22.97;;;;;;;6.95;84.58;100191.06;124993;1099;104226;-81
2024/02/23 06:19:05;;;;;;;44.67;22.33;;;;;;;6.99;84.21;100195.61;124694;1098;104312;-81
2024/02/23 06:21:36;;;;;;;48.00;23.87;;;;;;;7.02;84.51;100195.74;124316;1099;104252;-82
2024/02/23 06:24:08;;;;;;;46.30;23.23;;;;;;;7.06;84.51;100199.38;124587;1099;104354;-80
2024/02/23 06:26:40;;;;;;;43.23;23.00;;;;;;;7.14;84.47;100203.24;126232;1098;101910;-82
2024/02/23 06:29:12;;;;;;;39.37;21.70;;;;;;;7.20;84.74;100195.69;124865;1099;104252;-86
2024/02/23 06:31:56;;;;;;;44.80;23.63;;;;;;;7.23;84.77;100201.05;124934;1098;104344;-82
2024/02/23 06:34:27;;;;;;;42.98;23.15;;;;;;;7.29;84.41;100206.53;125379;1099;107207;-81
2024/02/23 06:36:59;;;;;;;46.13;22.27;;;;;;;7.35;84.61;100209.42;125276;1098;104224;-82
2024/02/23 06:39:30;;;;;;;45.40;23.40;;;;;;;7.42;84.54;100205.34;125254;1099;103220;-82
2024/02/23 06:42:03;;;;;;;44.15;23.80;;;;;;;7.50;84.50;100196.12;125025;1099;104296;-81
2024/02/23 06:44:35;;;;;;;39.33;22.50;;;;;;;7.59;84.32;100199.94;124973;1099;104229;-81
2024/02/23 06:47:07;;;;;;;42.53;22.43;;;;;;;7.68;84.54;100197.72;124777;1099;104316;-82
2024/02/23 06:49:42;;;;;;;39.70;21.93;;;;;;;7.77;84.33;100189.40;125061;1099;104201;-82
2024/02/23 06:52:13;;;;;;;41.17;22.43;;;;;;;7.85;84.52;100190.59;124834;1099;104367;-85
2024/02/23 06:54:45;;;;;;;43.10;23.90;;;;;;;7.91;84.70;100180.41;125376;1098;104320;-81
2024/02/23 06:57:16;;;;;;;41.73;23.30;;;;;;;8.00;84.28;100174.68;124886;1099;104303;-84
2024/02/23 06:59:48;;;;;;;40.53;22.97;;;;;;;8.10;84.78;100176.81;124653;1099;102576;-82
2024/02/23 07:02:19;;;;;;;42.50;22.37;;;;;;;8.18;84.36;100172.81;125110;1099;104239;-82
2024/02/23 07:04:50;;;;;;;42.07;21.73;;;;;;;8.26;84.62;100178.34;124963;1099;104236;-80
2024/02/23 07:07:21;;;;;;;43.20;23.97;;;;;;;8.35;84.60;100172.56;124829;1099;104294;-82
2024/02/23 07:09:55;;;;;;;40.13;22.30;;;;;;;8.46;84.61;100186.98;124583;1099;102054;-81
2024/02/23 07:12:27;;;;;;;;;;;;;;;8.54;84.72;100182.05;125657;1099;104171;-81
2024/02/23 07:14:58;;;;;;;39.83;22.37;;;;;;;8.62;84.83;100184.14;124792;1098;104175;-80
2024/02/23 07:17:29;;;;;;;43.40;23.70;;;;;;;8.69;83.87;100180.02;125229;1099;104179;-81
2024/02/23 07:20:05;;;;;;;44.97;23.60;;;;;;;8.77;84.19;100180.31;125096;1099;103271;-82
2024/02/23 07:22:37;;;;;;;42.30;24.57;;;;;;;8.82;83.99;100184.02;125017;1098;104252;-82
2024/02/23 07:25:09;;;;;;;43.93;22.87;;;;;;;8.90;84.36;100182.57;125128;1099;104252;-83
2024/02/23 07:27:40;;;;;;;43.83;23.00;;;;;;;9.01;84.05;100180.36;124538;1099;104216;-81
2024/02/23 07:30:16;;;;;;;43.33;23.90;;;;;;;9.11;84.55;100184.19;124930;1099;104281;-82
2024/02/23 07:32:48;;;;;;;42.40;23.93;;;;;;;9.18;84.55;100176.62;125252;1098;104169;-82
2024/02/23 07:35:19;;;;;;;39.20;21.43;;;;;;;9.24;83.84;100178.58;125185;1099;104255;-80
2024/02/23 07:37:50;;;;;;;38.53;20.80;;;;;;;9.33;83.64;100185.84;124926;1099;104181;-83
2024/02/23 07:40:21;;;;;;;41.37;22.80;;;;;;;9.39;83.43;100177.33;124760;1098;102872;-82
2024/02/23 07:42:53;;;;;;;41.03;22.43;;;;;;;9.42;83.77;100183.55;125149;1099;104259;-81
2024/02/23 07:45:25;;;;;;;39.53;21.97;;;;;;;9.50;83.84;100174.23;125253;1099;102724;-81
2024/02/23 07:47:56;;;;;;;40.37;22.37;;;;;;;9.53;83.01;100173.45;125297;1099;102550;-82
2024/02/23 07:50:28;;;;;;;40.23;22.07;;;;;;;9.59;83.84;100165.81;124564;1099;104419;-85
2024/02/23 07:53:07;;;;;;;42.97;22.50;;;;;;;9.66;83.34;100166.91;125019;1099;104194;-84
2024/02/23 07:55:42;;;;;;;44.27;22.33;;;;;;;9.77;83.14;100164.64;125928;1099;103393;-84
2024/02/23 07:58:14;;;;;;;39.13;22.70;;;;;;;9.86;82.68;100159.72;125393;1099;104272;-83
2024/02/23 08:00:49;;;;;;;43.43;21.63;;;;;;;9.96;82.76;100164.43;125102;1098;104252;-83
2024/02/23 08:03:22;;;;;;;40.00;22.37;;;;;;;10.03;82.41;100155.91;125209;1099;104169;-81
2024/02/23 08:05:56;;;;;;;41.37;22.07;;;;;;;10.15;83.05;100163.28;125737;1099;104264;-82
2024/02/23 08:08:32;;;;;;;39.90;22.83;;;;;;;10.22;82.77;100159.12;124486;1102;104335;-82
2024/02/23 08:11:03;;;;;;;38.10;20.07;;;;;;;10.31;82.61;100172.52;124591;1099;102629;-82
2024/02/23 08:13:35;;;;;;;43.53;22.77;;;;;;;10.45;82.79;100174.73;124945;1098;104335;-81
2024/02/23 08:16:08;;;;;;;42.13;21.27;;;;;;;10.54;82.87;100182.89;124389;1099;104272;-81
2024/02/23 08:18:44;;;;;;;39.27;20.48;;;;;;;10.53;81.45;100179.38;125435;1099;104163;-82
2024/02/23 08:21:15;;;;;;;38.17;20.87;;;;;;;10.57;81.63;100180.36;125098;1099;102173;-83
2024/02/23 08:23:48;;;;;;;39.67;20.70;;;;;;;10.61;81.54;100176.96;125165;1099;104236;-80
2024/02/23 08:26:20;;;;;;;39.13;20.27;;;;;;;10.66;81.76;100183.27;124990;1099;104204;-81
2024/02/23 08:28:52;;;;;;;36.13;19.83;;;;;;;10.74;81.40;100180.88;124978;1099;104194;-82
2024/02/23 08:31:24;;;;;;;35.00;19.93;;;;;;;10.80;81.18;100181.05;125480;1099;104248;-82
2024/02/23 08:33:55;;;;;;;35.13;19.40;;;;;;;10.86;80.69;100181.23;125698;1099;104322;-78
2024/02/23 08:36:26;;;;;;;38.45;20.05;;;;;;;10.91;81.04;100174.38;124346;1099;104242;-77
2024/02/23 08:38:57;;;;;;;32.77;18.73;;;;;;;10.95;79.89;100170.09;124436;1099;104363;-77
2024/02/23 08:41:28;;;;;;;38.37;21.37;;;;;;;11.03;80.69;100179.10;124492;1098;104309;-75
2024/02/23 08:44:00;;;;;;;36.67;21.03;;;;;;;11.09;80.25;100184.50;124443;1099;104335;-76
2024/02/23 08:46:31;;;;;;;37.07;19.97;;;;;;;11.16;80.22;100182.95;124271;1099;104245;-75
2024/02/23 08:49:02;;;;;;;33.67;19.30;;;;;;;11.21;80.09;100181.34;124394;1099;104236;-76
2024/02/23 08:51:34;;;;;;;38.13;19.10;;;;;;;11.23;79.12;100179.63;124489;1099;104198;-76
2024/02/23 08:54:07;;;;;;;34.50;19.00;;;;;;;11.28;78.70;100174.51;124524;1099;104656;-76
2024/02/23 08:56:42;;;;;;;33.90;18.87;;;;;;;11.40;79.23;100174.84;124238;1099;104277;-77
2024/02/23 08:59:13;;;;;;;35.90;20.33;;;;;;;11.56;78.83;100164.75;124344;1099;103478;-76
2024/02/23 09:01:46;;;;;;;33.60;18.67;;;;;;;11.72;79.08;100169.57;124534;1099;104249;-76
2024/02/23 09:04:18;;;;;;;35.60;19.53;;;;;;;11.83;78.20;100170.72;124842;1099;104162;-77
2024/02/23 09:06:51;;;;;;;34.13;19.77;;;;;;;11.96;78.22;100179.83;124617;1099;104255;-77
2024/02/23 09:09:23;;;;;;;36.17;20.30;;;;;;;12.07;77.46;100181.85;124498;1099;104274;-79
2024/02/23 09:11:54;;;;;;;34.80;19.40;;;;;;;12.20;77.83;100176.02;124289;1099;104165;-78
2024/02/23 09:14:26;;;;;;;38.90;20.27;;;;;;;12.36;77.93;100178.17;123972;1099;104338;-79
2024/02/23 09:16:57;;;;;;;33.63;19.17;;;;;;;12.51;77.09;100175.02;124257;1099;104242;-76
2024/02/23 09:19:28;;;;;;;34.07;18.80;;;;;;;12.63;76.31;100173.50;124465;1099;104690;-77
2024/02/23 09:22:00;;;;;;;31.60;18.50;;;;;;;12.74;77.76;100170.23;124696;1099;104159;-77
2024/02/23 09:24:31;;;;;;;35.67;20.47;;;;;;;12.92;77.37;100166.23;124366;1099;104271;-79
2024/02/23 09:27:03;;;;;;;37.57;19.47;;;;;;;13.10;77.99;100163.06;124146;1099;102279;-76
2024/02/23 09:29:37;;;;;;;35.60;18.17;;;;;;;13.19;76.16;100163.25;124475;1099;104165;-76
2024/02/23 09:32:09;;;;;;;33.23;18.97;;;;;;;13.28;76.43;100159.92;124257;1099;104255;-76
2024/02/23 09:34:40;;;;;;;34.77;18.10;;;;;;;13.33;75.88;100144.20;124334;1099;104829;-76
2024/02/23 09:37:12;;;;;;;32.43;18.03;;;;;;;13.42;74.29;100141.77;124494;1099;104173;-79
2024/02/23 09:39:43;;;;;;;34.03;17.67;;;;;;;13.59;75.36;100144.71;124638;1099;104265;-78
2024/02/23 09:42:15;;;;;;;29.40;16.70;;;;;;;13.64;75.02;100127.22;124635;1099;104233;-78
2024/02/23 09:44:49;;;;;;;28.60;16.17;;;;;;;13.73;73.74;100129.09;124638;1099;104165;-79
2024/02/23 09:47:21;;;;;;;28.83;16.17;;;;;;;13.81;74.58;100119.59;124570;1098;104233;-75
2024/02/23 09:49:55;;;;;;;31.83;16.43;;;;;;;13.82;71.96;100119.62;124655;1098;104172;-75
2024/02/23 09:52:28;;;;;;;27.67;14.55;;;;;;;13.84;72.76;100109.09;124762;1099;104162;-76
2024/02/23 09:55:00;;;;;;;28.50;15.10;;;;;;;13.90;73.48;100116.19;124729;1099;104233;-76
2024/02/23 09:57:32;;;;;;;30.90;15.43;;;;;;;13.93;72.50;100100.42;124688;1098;104454;-78
2024/02/23 10:00:06;;;;;;;32.03;14.93;;;;;;;13.95;71.89;100106.62;124708;1099;104224;-75
2024/02/23 10:02:45;;;;;;;28.77;15.07;;;;;;;13.98;71.91;100098.77;124708;1099;104236;-78
2024/02/23 10:05:19;;;;;;;30.13;16.40;;;;;;;14.02;71.91;100096.20;124428;1099;104210;-76
2024/02/23 10:07:53;;;;;;;29.90;15.90;;;;;;;14.10;72.18;100104.23;124512;1099;104166;-76
2024/02/23 10:10:31;;;;;;;;;;;;;;;14.18;68.41;100096.42;124546;1099;104188;-76
2024/02/23 10:13:05;;;;;;;28.90;16.20;;;;;;;14.27;71.15;100093.89;124569;1099;104235;-78
2024/02/23 10:15:36;;;;;;;28.30;15.13;;;;;;;14.36;70.83;100101.94;124830;1099;103328;-76
2024/02/23 10:18:09;;;;;;;31.70;15.93;;;;;;;14.38;69.73;100084.39;124715;1100;104252;-76
2024/02/23 10:20:43;;;;;;;27.23;14.67;;;;;;;14.49;69.37;100088.91;124855;1099;104296;-76
2024/02/23 10:23:19;;;;;;;26.00;14.55;;;;;;;14.62;69.07;100090.01;125067;1099;102011;-74
2024/02/23 10:25:51;;;;;;;26.25;14.18;;;;;;;14.66;68.30;100090.06;125009;1099;104240;-78
2024/02/23 10:28:23;;;;;;;25.40;13.50;;;;;;;14.76;66.74;100079.59;124838;1099;104200;-74
2024/02/23 10:30:55;;;;;;;25.37;13.13;;;;;;;14.81;68.11;100083.19;124584;1098;104392;-75
2024/02/23 10:33:26;;;;;;;26.33;13.43;;;;;;;14.80;67.34;100077.00;124679;1099;104238;-73
2024/02/23 10:35:58;;;;;;;23.83;12.67;;;;;;;14.84;66.89;100062.97;125174;1099;104316;-74
2024/02/23 10:38:33;;;;;;;24.90;13.63;;;;;;;14.89;67.10;100060.38;124872;1099;104155;-77
2024/02/23 10:41:08;;;;;;;25.83;13.63;;;;;;;14.97;66.23;100066.63;124979;1099;104153;-76
2024/02/23 10:43:47;;;;;;;26.33;13.97;;;;;;;15.01;66.61;100086.94;124776;1099;104219;-75
2024/02/23 10:46:22;;;;;;;26.80;13.37;;;;;;;15.03;66.08;100084.31;124991;1098;104347;-77
2024/02/23 10:48:55;;;;;;;26.17;13.70;;;;;;;15.03;65.54;100082.55;124835;1098;104360;-74
2024/02/23 10:51:27;;;;;;;27.90;14.33;;;;;;;14.96;66.30;100083.37;124744;1099;104246;-76
2024/02/23 10:54:01;;;;;;;26.77;13.53;;;;;;;15.00;65.56;100081.64;124573;1099;104245;-75
2024/02/23 10:56:32;;;;;;;24.77;12.47;;;;;;;15.02;65.48;100075.52;125098;1099;104281;-78
2024/02/23 10:59:04;;;;;;;22.57;10.90;;;;;;;14.99;63.79;100077.21;124822;1099;104188;-73
2024/02/23 11:01:39;;;;;;;25.87;12.73;;;;;;;15.00;65.01;100068.42;126439;1099;102592;-75
2024/02/23 11:04:09;;;;;;;;;;;;;;;15.01;62.33;100081.66;125172;1098;104213;-74
2024/02/23 11:06:41;;;;;;;23.53;11.57;;;;;;;14.97;61.97;100063.98;125091;1099;104159;-76
2024/02/23 11:09:15;;;;;;;25.17;12.33;;;;;;;14.96;62.15;100067.52;124840;1099;104172;-75
2024/02/23 11:11:56;;;;;;;23.97;11.43;;;;;;;14.99;62.90;100072.83;124349;1099;104283;-75
2024/02/23 11:14:36;;;;;;;22.27;11.70;;;;;;;14.97;61.34;100074.55;124900;1099;104248;-74
2024/02/23 11:17:18;;;;;;;25.00;11.33;;;;;;;15.01;62.45;100068.44;124325;1099;104328;-75
2024/02/23 11:19:52;;;;;;;20.23;10.20;;;;;;;15.04;60.69;100071.12;124743;1099;104249;-73